createdAt,value
2023-02-03T00:03:56.058Z,90.99
2023-02-03T00:09:00.965Z,91.25
2023-02-03T00:14:05.644Z,91.38
2023-02-03T00:19:08.751Z,91.46
2023-02-03T00:24:11.954Z,91.56
2023-02-03T00:29:15.374Z,91.64
2023-02-03T00:34:18.381Z,91.59
2023-02-03T00:39:21.376Z,91.40
2023-02-03T00:44:24.690Z,91.33
2023-02-03T00:49:27.796Z,91.38
2023-02-03T00:54:32.642Z,91.35
2023-02-03T00:59:36.564Z,91.31
2023-02-03T01:04:39.775Z,91.26
2023-02-03T01:09:42.773Z,91.31
2023-02-03T01:14:45.985Z,91.32
2023-02-03T01:19:50.622Z,91.38
2023-02-03T01:24:53.626Z,91.36
2023-02-03T01:29:56.842Z,91.40
2023-02-03T01:34:59.837Z,91.55
2023-02-03T01:40:04.073Z,91.52
2023-02-03T01:45:08.728Z,91.53
2023-02-03T01:50:15.403Z,91.54
2023-02-03T01:55:23.300Z,91.54
2023-02-03T02:00:27.265Z,91.51
2023-02-03T02:05:39.875Z,91.53
2023-02-03T02:10:43.078Z,91.60
2023-02-03T02:16:02.305Z,91.66
2023-02-03T02:21:31.377Z,91.67
2023-02-03T02:26:44.111Z,91.74
2023-02-03T02:32:09.741Z,91.78
2023-02-03T02:37:18.788Z,91.82
2023-02-03T02:42:54.103Z,91.87
2023-02-03T02:48:05.927Z,91.94
2023-02-03T02:53:10.495Z,92.00
2023-02-03T02:58:16.796Z,92.14
2023-02-03T03:03:22.702Z,92.18
2023-02-03T03:08:53.916Z,92.17
2023-02-03T03:13:57.533Z,92.18
2023-02-03T03:19:07.185Z,92.23
2023-02-03T03:24:15.719Z,92.31
2023-02-03T03:29:25.379Z,92.38
2023-02-03T03:34:30.573Z,92.45
2023-02-03T03:39:55.249Z,92.48
2023-02-03T03:45:04.808Z,92.59
2023-02-03T03:50:12.296Z,92.57
2023-02-03T03:55:18.747Z,92.54
2023-02-03T04:00:24.861Z,92.60
2023-02-03T04:05:28.804Z,92.67
2023-02-03T04:10:36.301Z,92.71
2023-02-03T04:15:39.613Z,92.74
2023-02-03T04:20:42.616Z,92.72
2023-02-03T04:25:46.027Z,92.70
2023-02-03T04:30:49.145Z,92.67
2023-02-03T04:35:52.130Z,92.68
2023-02-03T04:40:55.261Z,92.61
2023-02-03T04:46:00.393Z,92.61
2023-02-03T04:51:04.954Z,92.66
2023-02-03T04:56:08.081Z,92.77
2023-02-03T05:01:11.284Z,92.90
2023-02-03T05:06:14.353Z,92.94
2023-02-03T05:11:17.458Z,92.93
2023-02-03T05:16:20.924Z,92.93
2023-02-03T05:21:24.078Z,92.94
2023-02-03T05:26:27.188Z,93.00
2023-02-03T05:31:30.165Z,93.02
2023-02-03T05:36:33.299Z,93.05
2023-02-03T05:41:56.565Z,93.10
2023-02-03T05:47:01.122Z,93.09
2023-02-03T05:52:04.829Z,93.11
2023-02-03T05:57:07.834Z,93.19
2023-02-03T06:02:10.835Z,93.27
2023-02-03T06:07:13.739Z,93.27
2023-02-03T06:12:16.712Z,93.38
2023-02-03T06:17:19.636Z,93.49
2023-02-03T06:22:22.745Z,93.55
2023-02-03T06:27:26.052Z,93.59
2023-02-03T06:32:29.157Z,93.62
2023-02-03T06:37:32.777Z,93.62
2023-02-03T06:42:35.783Z,93.63
2023-02-03T06:47:42.376Z,93.65
2023-02-03T06:52:45.264Z,93.67
2023-02-03T06:57:48.591Z,93.75
2023-02-03T07:02:55.581Z,93.86
2023-02-03T07:07:59.398Z,93.95
2023-02-03T07:13:04.036Z,94.01
2023-02-03T07:18:07.057Z,94.04
2023-02-03T07:23:09.950Z,93.78
2023-02-03T07:28:13.339Z,92.23
2023-02-03T07:33:16.255Z,90.56
2023-02-03T07:38:19.665Z,88.23
2023-02-03T07:43:23.406Z,85.54
2023-02-03T07:48:26.390Z,85.91
2023-02-03T07:53:29.397Z,85.67
2023-02-03T07:58:32.605Z,83.90
2023-02-03T08:03:35.444Z,82.16
2023-02-03T08:08:38.715Z,81.11
2023-02-03T08:13:41.917Z,80.70
2023-02-03T08:18:45.554Z,78.42
2023-02-03T08:23:49.783Z,71.61
2023-02-03T08:28:52.977Z,70.16
2023-02-03T08:33:56.265Z,69.25
2023-02-03T08:38:59.290Z,71.69
2023-02-03T08:44:02.495Z,74.16
2023-02-03T08:49:06.523Z,75.05
2023-02-03T08:54:09.631Z,76.66
2023-02-03T08:59:13.048Z,77.46
2023-02-03T09:04:24.846Z,78.04
2023-02-03T09:09:29.226Z,78.90
2023-02-03T09:14:33.416Z,80.03
2023-02-03T09:19:36.852Z,80.44
2023-02-03T09:24:40.651Z,80.98
2023-02-03T09:29:43.653Z,81.17
2023-02-03T09:34:46.567Z,81.17
2023-02-03T09:39:49.636Z,81.16
2023-02-03T09:44:58.703Z,80.75
2023-02-03T09:50:04.883Z,81.27
2023-02-03T09:55:28.063Z,81.81
2023-02-03T10:00:51.318Z,82.39
2023-02-03T10:06:10.009Z,82.43
2023-02-03T10:11:18.851Z,82.43
2023-02-03T10:16:48.780Z,81.80
2023-02-03T10:21:55.572Z,81.72
2023-02-03T10:26:59.088Z,81.83
2023-02-03T10:32:02.855Z,81.84
2023-02-03T10:37:26.783Z,81.69
2023-02-03T10:42:51.511Z,80.81
2023-02-03T10:47:56.275Z,80.97
2023-02-03T10:53:19.900Z,81.07
2023-02-03T10:58:26.644Z,81.00
2023-02-03T11:03:29.964Z,81.32
2023-02-03T11:08:33.465Z,81.73
2023-02-03T11:13:36.663Z,81.57
2023-02-03T11:18:46.229Z,81.80
2023-02-03T11:23:52.716Z,81.62
2023-02-03T11:28:57.481Z,81.58
2023-02-03T11:34:03.227Z,81.56
2023-02-03T11:39:09.819Z,81.59
2023-02-03T11:44:17.319Z,81.78
2023-02-03T11:49:39.578Z,82.52
2023-02-03T11:54:54.233Z,83.37
2023-02-03T11:59:57.573Z,84.07
2023-02-03T12:05:01.348Z,84.75
2023-02-03T12:10:25.484Z,85.38
2023-02-03T12:15:36.901Z,86.07
2023-02-03T12:20:41.180Z,86.73
2023-02-03T12:25:57.235Z,86.89
2023-02-03T12:31:09.170Z,87.12
2023-02-03T12:36:19.026Z,87.57
2023-02-03T12:41:43.275Z,87.84
2023-02-03T12:47:07.102Z,88.78
2023-02-03T12:52:23.517Z,88.55
2023-02-03T12:57:26.631Z,86.63
2023-02-03T13:02:32.750Z,86.17
2023-02-03T13:07:57.763Z,87.00
2023-02-03T13:13:02.971Z,87.81
2023-02-03T13:18:12.017Z,87.91
2023-02-03T13:23:16.147Z,88.33
2023-02-03T13:28:38.099Z,88.69
2023-02-03T13:33:50.112Z,88.82
2023-02-03T13:38:53.214Z,89.17
2023-02-03T13:43:57.553Z,89.45
2023-02-03T13:49:01.985Z,89.71
2023-02-03T13:54:13.287Z,90.00
2023-02-03T13:59:16.286Z,90.00
2023-02-03T14:04:25.700Z,90.17
2023-02-03T14:09:28.847Z,90.32
2023-02-03T14:14:35.125Z,90.44
2023-02-03T14:19:50.319Z,90.41
2023-02-03T14:24:55.368Z,90.48
2023-02-03T14:30:09.967Z,90.61
2023-02-03T14:35:36.919Z,90.72
2023-02-03T14:40:55.574Z,90.90
2023-02-03T14:46:34.310Z,91.15
2023-02-03T14:51:40.504Z,91.46
2023-02-03T14:57:19.235Z,91.78
2023-02-03T15:02:25.603Z,91.95
2023-02-03T15:07:35.893Z,92.04
2023-02-03T15:12:38.996Z,92.08
2023-02-03T15:17:42.214Z,92.05
2023-02-03T15:22:46.336Z,92.01
2023-02-03T15:27:49.582Z,91.99
2023-02-03T15:33:03.707Z,92.14
2023-02-03T15:38:09.377Z,92.12
2023-02-03T15:43:22.260Z,91.92
2023-02-03T15:48:31.608Z,91.92
2023-02-03T15:53:47.186Z,91.74
2023-02-03T15:58:51.210Z,91.69
2023-02-03T16:03:55.494Z,91.75
2023-02-03T16:09:00.126Z,91.74
2023-02-03T16:14:08.082Z,91.69
2023-02-03T16:19:13.441Z,91.46
2023-02-03T16:24:35.386Z,91.28
2023-02-03T16:29:57.028Z,90.87
2023-02-03T16:35:19.592Z,90.54
2023-02-03T16:40:43.377Z,90.45
2023-02-03T16:46:17.072Z,90.53
2023-02-03T16:51:23.614Z,90.62
2023-02-03T16:56:27.008Z,90.41
2023-02-03T17:01:30.131Z,90.21
2023-02-03T17:06:34.649Z,89.91
2023-02-03T17:11:37.865Z,89.96
2023-02-03T17:16:41.799Z,89.82
2023-02-03T17:21:44.904Z,89.62
2023-02-03T17:26:47.885Z,89.51
2023-02-03T17:31:51.068Z,89.36
2023-02-03T17:36:55.431Z,89.29
2023-02-03T17:58:01.197Z,89.18
2023-02-03T18:03:04.983Z,89.27
2023-02-03T18:08:16.303Z,89.22
2023-02-03T18:13:24.678Z,89.01
2023-02-03T18:18:29.676Z,88.99
2023-02-03T18:23:33.337Z,88.97
2023-02-03T18:28:37.256Z,89.05
2023-02-03T18:33:40.516Z,89.08
2023-02-03T18:38:44.853Z,88.96
2023-02-03T18:43:49.608Z,88.75
2023-02-03T18:48:53.650Z,88.83
2023-02-03T18:53:58.487Z,88.89
2023-02-03T18:59:06.110Z,88.89
2023-02-03T19:04:09.714Z,88.64
2023-02-03T19:09:15.582Z,88.71
2023-02-03T19:14:19.080Z,88.60
2023-02-03T19:19:22.258Z,88.70
2023-02-03T19:24:27.271Z,88.81
2023-02-03T19:29:30.478Z,88.90
2023-02-03T19:34:33.590Z,89.10
2023-02-03T19:39:36.586Z,89.19
2023-02-03T19:44:39.694Z,89.41
2023-02-03T19:49:43.720Z,89.59
2023-02-03T19:54:46.633Z,89.46
2023-02-03T19:59:50.036Z,89.40
2023-02-03T20:04:53.536Z,89.40
2023-02-03T20:09:57.172Z,89.28
2023-02-03T20:15:01.994Z,89.21
2023-02-03T20:20:11.571Z,89.18
2023-02-03T20:25:16.497Z,89.04
2023-02-03T20:30:20.769Z,89.06
2023-02-03T20:35:24.471Z,89.22
2023-02-03T20:40:30.065Z,89.23
2023-02-03T20:45:35.193Z,89.24
2023-02-03T20:50:42.580Z,89.17
2023-02-03T20:55:48.160Z,89.10
2023-02-03T21:00:52.058Z,89.13
2023-02-03T21:05:56.511Z,89.22
2023-02-03T21:11:00.350Z,89.44
2023-02-03T21:16:13.232Z,89.62
2023-02-03T21:21:20.394Z,89.67
2023-02-03T21:26:28.207Z,89.71
2023-02-03T21:31:33.142Z,89.69
2023-02-03T21:36:38.205Z,89.66
2023-02-03T21:41:41.229Z,89.55
2023-02-03T21:46:44.313Z,89.40
2023-02-03T21:51:48.958Z,89.05
2023-02-03T21:56:52.267Z,89.07
2023-02-03T22:01:58.034Z,88.96
2023-02-03T22:07:01.240Z,88.52
2023-02-03T22:12:04.657Z,88.60
2023-02-03T22:17:07.756Z,88.31
2023-02-03T22:22:10.860Z,88.33
2023-02-03T22:27:14.038Z,88.38
2023-02-03T22:32:17.280Z,88.43
2023-02-03T22:37:20.488Z,88.53
2023-02-03T22:42:23.589Z,88.62
2023-02-03T22:47:27.259Z,88.69
2023-02-03T22:52:30.318Z,88.72
2023-02-03T22:57:33.338Z,88.72
2023-02-03T23:02:36.633Z,88.61
2023-02-03T23:07:40.473Z,88.62
2023-02-03T23:12:43.417Z,88.57
2023-02-03T23:17:46.968Z,88.59
2023-02-03T23:22:51.118Z,88.62
2023-02-03T23:27:54.253Z,88.70
2023-02-03T23:32:57.616Z,88.75
2023-02-03T23:38:00.631Z,88.75
2023-02-03T23:43:03.728Z,88.73
2023-02-03T23:48:07.856Z,88.76
2023-02-03T23:53:13.813Z,88.79
2023-02-03T23:58:20.308Z,88.79
